Hlavní strana
METAR-TAF:

METAR-TAF

Letiště :

Láhaur, Pákistán

zeměpisná šířka: 31-31N, zeměpisná délka: 074-24E, výška: 216 m

Aktuální stav počasí

Zpráva byla vytvořena před 40 minutami, v 15:59 UTC
Východoseverovýchodní vítr 4 kt
Teplota 20°C
Vlhkost vzduchu 53%
Tlak 1015 hPa
Viditelnost: 4000 m
kouř

METAR: OPLA 181559Z 07004KT 4000 FU NSC 20/10 Q1015 RMK QFE989 NOSIG RMK A29.95

Čas: 21:39 (16:39 UTC)

Předpověď počasí

Zpráva byla vytvořena před 6 hodinami a 54 minutami, v 09:45 UTC
Předpověď platná od 18 v 12 UTC do 19 v 18 UTC
Severoseverovýchodní vítr 5 kt
Viditelnost: 4000 m
kouř
Dočasný
od 19 v 01 UTC do 19 v 05 UTC
vítr z různých směrů 2 kt
Viditelnost: 2000 m
kouřmo
Změna
od 19 v 08 UTC do 19 v 13 UTC
Severovýchodní vítr 6 kt
Viditelnost: 6000 m

TAF: OPLA 180945Z 1812/1918 03005KT 4000 FU NSC TX27/1910Z TN12/1901Z TEMPO 1901/1905 VRB02KT 2000 BR NSC BECMG 1908/1913 05006KT 6000 NSC

Stav a předpovědi počasí z více než 4 000 letišť (zprávy METAR a TAF).

Červené a žluté tečky na mapě představují dostupné meteorologické stanice.

Když kurzor umístíte na tečku, zobrazí se název stanice.

Pak kliknutím zobrazíte stav a předpověď počasí.

Chcete-li změnit mapu, kliknutím na zelené tlačítko se znaménkem +mapu přiblížíte, kliknutím na zelené tlačítko se znaménkem – mapu oddálíte a kliknutím na zelené šipky přejdete na sousední mapy.


METAR-TAF: